Argo, Texas
Current Conditions -  °F | °C
As of 11:35 PM on Friday 31 Oct 2014 (Local Time) from KOSA Reporting Station
Clear Clear  
Wind Chill: 44°   Ceiling: Unl
Heat Index: 47°   Visibility: 10mi
Dew Point: 36°   Wind: 6mph
Humidity: 64%   Direction: 350°N
Pressure: 30.37"   Gusts: NA
Location:  33.1839°N, 94.8612°W
Report Text: KOSA 010435Z AUTO 35005KT 10SM CLR 08/02 A3037 RMK AO1 T00840020
Loading
Personal Weather Stations






























Interactive Weather Map
Tropical Storm Tracking
New forecast layout! Learn more

10-Day Weather Forecast

Advertisements
Track Severe Weather on mobile